Time;durP1;ratioP1;P1;durP2;ratioP2;P2;SDS_P1;SDS_P2;PMS_P1;PMS_P2;Temp;Humidity;BMP_temperature;BMP_pressure;BME280_temperature;BME280_humidity;BME280_pressure;Samples;Min_cycle;Max_cycle;Signal;HPM_P1;HPM_P2
2023/12/05 15:22:30;;;;;;;4.60;3.03;;;;;;;0.81;100.00;91816.59;5112845;27;20853;-77
2023/12/05 15:24:56;;;;;;;4.32;3.20;;;;;;;0.86;100.00;91824.41;5106514;28;20036;-79
2023/12/05 15:27:21;;;;;;;6.45;3.78;;;;;;;0.75;100.00;91820.94;5088400;28;20093;-77
2023/12/05 15:29:47;;;;;;;5.10;3.75;;;;;;;0.65;100.00;91818.25;5088806;28;20039;-77
2023/12/05 15:32:13;;;;;;;5.35;3.60;;;;;;;0.57;100.00;91819.47;5096909;28;20015;-77
2023/12/05 15:34:39;;;;;;;4.78;3.38;;;;;;;0.49;100.00;91819.09;5098962;28;20311;-79
2023/12/05 15:37:05;;;;;;;5.55;3.95;;;;;;;0.45;100.00;91826.53;5102540;28;20479;-79
2023/12/05 15:39:31;;;;;;;4.53;3.55;;;;;;;0.33;100.00;91825.88;5079689;28;20055;-76
2023/12/05 15:41:57;;;;;;;4.93;3.55;;;;;;;0.19;100.00;91826.22;5082499;28;20016;-79
2023/12/05 15:44:22;;;;;;;4.72;3.15;;;;;;;0.19;100.00;91831.38;5092550;28;20458;-78
2023/12/05 15:46:48;;;;;;;5.75;3.53;;;;;;;0.11;100.00;91826.66;5097963;28;20051;-79
2023/12/05 15:49:13;;;;;;;6.10;3.47;;;;;;;0.04;100.00;91826.03;5081109;28;20114;-77
2023/12/05 15:51:39;;;;;;;4.30;3.08;;;;;;;0.00;100.00;91827.53;5101484;28;20024;-80
2023/12/05 15:54:05;;;;;;;4.30;3.25;;;;;;;-0.04;100.00;91832.38;5099472;28;20099;-79
2023/12/05 15:56:30;;;;;;;3.92;2.90;;;;;;;-0.06;100.00;91826.69;5101431;28;20065;-79
2023/12/05 15:58:57;;;;;;;4.70;2.97;;;;;;;-0.12;100.00;91829.41;5094909;28;20093;-79
2023/12/05 16:01:23;;;;;;;4.68;3.00;;;;;;;-0.09;100.00;91829.72;5085992;28;20442;-79
2023/12/05 16:03:49;;;;;;;4.95;3.28;;;;;;;-0.19;100.00;91839.09;5098994;28;20121;-79
2023/12/05 16:06:15;;;;;;;4.53;3.20;;;;;;;-0.28;100.00;91836.91;5107569;28;20040;-78
2023/12/05 16:08:41;;;;;;;4.25;3.15;;;;;;;-0.31;100.00;91842.53;5108341;28;20038;-77
2023/12/05 16:11:07;;;;;;;4.30;2.80;;;;;;;-0.41;100.00;91826.94;5073294;28;20123;-78
2023/12/05 16:13:32;;;;;;;4.78;2.92;;;;;;;-0.52;100.00;91830.38;5100667;28;20032;-78
2023/12/05 16:15:58;;;;;;;4.40;3.10;;;;;;;-0.51;100.00;91825.00;5109144;28;20019;-79
2023/12/05 16:18:24;;;;;;;4.85;3.15;;;;;;;-0.64;100.00;91818.38;5094169;28;20051;-79
2023/12/05 16:20:50;;;;;;;4.57;3.15;;;;;;;-0.60;100.00;91823.06;5100383;28;20604;-79
2023/12/05 16:23:15;;;;;;;4.30;3.20;;;;;;;-0.65;100.00;91821.97;5080297;28;20056;-79
2023/12/05 16:25:41;;;;;;;5.25;3.55;;;;;;;-0.70;100.00;91826.25;5077042;28;20071;-79
2023/12/05 16:28:07;;;;;;;5.30;3.88;;;;;;;-0.76;100.00;91824.63;5071205;28;20548;-79
2023/12/05 16:30:32;;;;;;;4.97;3.63;;;;;;;-0.80;100.00;91819.16;5077573;28;20365;-79
2023/12/05 16:32:58;;;;;;;5.45;3.90;;;;;;;-0.85;100.00;91819.88;5060661;28;20036;-79
2023/12/05 16:35:23;;;;;;;5.63;3.38;;;;;;;-0.88;100.00;91824.69;5045895;28;20049;-79
2023/12/05 16:37:49;;;;;;;3.83;2.83;;;;;;;-0.94;100.00;91820.50;5047070;28;20068;-79
2023/12/05 16:40:15;;;;;;;4.63;3.17;;;;;;;-0.97;100.00;91833.78;5070127;28;20068;-78
2023/12/05 16:42:40;;;;;;;4.40;2.95;;;;;;;-0.97;100.00;91826.06;5066342;28;20139;-79
2023/12/05 16:45:08;;;;;;;5.18;3.50;;;;;;;-0.99;100.00;91825.53;5063186;28;20047;-79
2023/12/05 16:47:33;;;;;;;5.10;3.70;;;;;;;-1.11;100.00;91833.28;5042484;28;20048;-79
2023/12/05 16:49:59;;;;;;;5.20;3.58;;;;;;;-1.14;100.00;91829.41;5058244;28;20040;-78
2023/12/05 16:52:25;;;;;;;6.03;4.40;;;;;;;-1.22;100.00;91834.91;5064887;28;20423;-79
2023/12/05 16:54:51;;;;;;;7.55;5.88;;;;;;;-1.26;100.00;91833.81;5061353;28;20055;-79
2023/12/05 16:57:16;;;;;;;5.60;4.53;;;;;;;-1.33;100.00;91840.84;5044801;28;20081;-79
2023/12/05 16:59:42;;;;;;;4.93;3.28;;;;;;;-1.35;100.00;91845.44;5059660;28;20572;-78
2023/12/05 17:02:07;;;;;;;4.95;3.58;;;;;;;-1.38;100.00;91843.34;5063827;28;20493;-79
2023/12/05 17:04:33;;;;;;;4.57;3.38;;;;;;;-1.36;100.00;91851.59;5047838;28;20233;-78
2023/12/05 17:07:00;;;;;;;4.60;3.35;;;;;;;-1.40;100.00;91846.13;5040784;28;20041;-77
2023/12/05 17:09:27;;;;;;;4.78;3.45;;;;;;;-1.38;100.00;91848.47;5063120;28;20496;-79
2023/12/05 17:11:53;;;;;;;6.30;4.82;;;;;;;-1.44;100.00;91850.19;5060970;28;20042;-79
2023/12/05 17:14:19;;;;;;;5.35;3.95;;;;;;;-1.43;100.00;91843.25;5045199;28;20037;-79
2023/12/05 17:16:44;;;;;;;4.75;3.60;;;;;;;-1.44;100.00;91854.50;5070512;28;20043;-79
2023/12/05 17:19:10;;;;;;;4.28;3.15;;;;;;;-1.45;100.00;91855.53;5061139;28;20109;-79
2023/12/05 17:21:35;;;;;;;5.65;3.60;;;;;;;-1.47;100.00;91850.63;5065971;28;20050;-78
2023/12/05 17:24:01;;;;;;;5.80;3.85;;;;;;;-1.45;100.00;91848.59;5064257;28;20052;-79
2023/12/05 17:26:27;;;;;;;5.13;3.55;;;;;;;-1.43;100.00;91844.03;5074917;28;20036;-79
2023/12/05 17:28:52;;;;;;;4.60;3.40;;;;;;;-1.37;100.00;91852.63;5042885;28;20473;-78
2023/12/05 17:31:18;;;;;;;4.32;3.08;;;;;;;-1.36;100.00;91851.59;5063298;28;20039;-79
2023/12/05 17:33:44;;;;;;;4.65;3.40;;;;;;;-1.36;100.00;91846.47;5061334;28;20043;-78
2023/12/05 17:36:10;;;;;;;4.07;2.55;;;;;;;-1.30;100.00;91843.75;5062300;28;20032;-79
2023/12/05 17:38:35;;;;;;;4.95;3.30;;;;;;;-1.07;100.00;91850.59;5064223;28;20025;-79
2023/12/05 17:41:01;;;;;;;4.85;3.30;;;;;;;-1.15;100.00;91853.53;5032781;28;20060;-78
2023/12/05 17:43:27;;;;;;;6.07;3.63;;;;;;;-1.24;100.00;91843.84;5041468;28;20056;-79
2023/12/05 17:45:53;;;;;;;4.78;3.60;;;;;;;-1.35;100.00;91848.81;5063955;28;20013;-79
2023/12/05 17:48:19;;;;;;;5.03;3.60;;;;;;;-1.42;100.00;91852.50;5047465;28;20086;-78
2023/12/05 17:50:45;;;;;;;5.43;3.92;;;;;;;-1.52;100.00;91848.75;5058602;28;20491;-78
2023/12/05 17:53:11;;;;;;;5.05;3.80;;;;;;;-1.61;100.00;91852.66;5059156;28;20032;-80
2023/12/05 17:55:36;;;;;;;5.10;3.80;;;;;;;-1.64;100.00;91854.91;5056646;28;20051;-80
2023/12/05 17:58:02;;;;;;;5.45;4.25;;;;;;;-1.67;100.00;91853.56;5057116;28;20045;-79
2023/12/05 18:00:28;;;;;;;5.18;3.95;;;;;;;-1.71;100.00;91848.13;5044300;28;20096;-80
2023/12/05 18:02:53;;;;;;;5.93;4.50;;;;;;;-1.72;100.00;91849.13;5033732;28;20033;-81
2023/12/05 18:05:19;;;;;;;5.65;4.30;;;;;;;-1.75;100.00;91853.94;5058456;28;20288;-79
2023/12/05 18:07:44;;;;;;;5.07;3.92;;;;;;;-1.80;100.00;91841.78;5065198;28;20036;-79
2023/12/05 18:10:10;;;;;;;4.75;3.40;;;;;;;-1.80;100.00;91848.69;5027800;28;20068;-79
2023/12/05 18:12:35;;;;;;;4.45;3.15;;;;;;;-1.80;100.00;91841.00;5044265;28;20049;-80
2023/12/05 18:15:01;;;;;;;4.43;2.90;;;;;;;-1.79;100.00;91837.44;5066488;28;20032;-78
2023/12/05 18:17:27;;;;;;;4.50;3.20;;;;;;;-1.79;100.00;91833.06;5061205;28;20555;-80
2023/12/05 18:19:52;;;;;;;4.68;3.15;;;;;;;-1.77;100.00;91835.44;5042785;28;20097;-80
2023/12/05 18:22:21;;;;;;;4.47;3.10;;;;;;;-1.79;100.00;91834.88;5077530;28;20105;-79
2023/12/05 18:24:46;;;;;;;4.85;3.20;;;;;;;-1.81;100.00;91829.19;5084030;28;20116;-79
2023/12/05 18:27:12;;;;;;;5.25;3.83;;;;;;;-1.84;100.00;91834.78;5086803;28;20064;-79
2023/12/05 18:29:39;;;;;;;5.60;4.00;;;;;;;-1.82;100.00;91832.72;5078897;28;20052;-81
2023/12/05 18:32:06;;;;;;;6.50;3.92;;;;;;;-1.84;100.00;91829.66;5089839;28;20028;-77
2023/12/05 18:34:31;;;;;;;4.07;3.10;;;;;;;-1.86;100.00;91840.13;5088985;28;20118;-78
2023/12/05 18:36:57;;;;;;;4.50;3.25;;;;;;;-1.86;100.00;91837.56;5078470;28;20543;-77
2023/12/05 18:39:22;;;;;;;4.60;3.15;;;;;;;-1.89;100.00;91836.22;5080102;28;20399;-78
2023/12/05 18:41:48;;;;;;;5.35;3.63;;;;;;;-1.90;100.00;91849.28;5074463;28;20514;-78
2023/12/05 18:44:14;;;;;;;5.32;3.90;;;;;;;-1.90;100.00;91855.19;5078764;28;20079;-78
2023/12/05 18:46:40;;;;;;;5.07;3.50;;;;;;;-1.95;100.00;91851.75;5084807;28;20056;-78
2023/12/05 18:49:05;;;;;;;4.75;3.33;;;;;;;-2.02;100.00;91848.53;5077894;28;20123;-78
2023/12/05 18:51:32;;;;;;;6.20;3.63;;;;;;;-2.03;100.00;91852.06;5075465;28;20105;-78
2023/12/05 18:53:58;;;;;;;5.03;3.70;;;;;;;-2.07;100.00;91853.53;5080144;28;20032;-78
2023/12/05 18:56:24;;;;;;;5.15;3.53;;;;;;;-2.17;100.00;91842.06;5080561;28;20155;-78
2023/12/05 18:58:49;;;;;;;5.63;3.67;;;;;;;-2.12;100.00;91860.13;5081166;28;20080;-78
2023/12/05 19:01:15;;;;;;;7.15;3.92;;;;;;;-2.17;100.00;91856.66;5081366;28;20040;-79
2023/12/05 19:03:41;;;;;;;4.00;2.90;;;;;;;-2.15;100.00;91858.00;5076997;28;20046;-79
2023/12/05 19:06:10;;;;;;;4.30;2.92;;;;;;;-2.15;100.00;91859.78;5072770;28;20036;-79
2023/12/05 19:08:37;;;;;;;3.90;2.78;;;;;;;-2.16;100.00;91845.38;5080226;28;20040;-78
2023/12/05 19:11:04;;;;;;;4.10;3.08;;;;;;;-2.11;100.00;91853.97;5077905;28;20517;-78
2023/12/05 19:13:34;;;;;;;4.35;3.00;;;;;;;-2.09;100.00;91846.06;5088364;28;20040;-78
2023/12/05 19:16:00;;;;;;;4.20;2.90;;;;;;;-2.11;100.00;91848.09;5082770;28;20032;-76
2023/12/05 19:18:26;;;;;;;8.20;5.50;;;;;;;-2.10;100.00;91852.19;5082207;28;20055;-78
2023/12/05 19:20:53;;;;;;;6.97;4.80;;;;;;;-2.16;100.00;91842.81;5073508;28;20087;-78
2023/12/05 19:23:18;;;;;;;6.72;3.90;;;;;;;-2.20;100.00;91842.50;5065487;28;20039;-77
2023/12/05 19:25:44;;;;;;;6.28;4.22;;;;;;;-2.21;100.00;91835.81;5062191;28;20032;-78
2023/12/05 19:28:10;;;;;;;6.50;4.13;;;;;;;-2.28;100.00;91834.38;5065421;28;20036;-76
2023/12/05 19:30:36;;;;;;;4.40;3.10;;;;;;;-2.31;100.00;91836.38;5045071;28;20047;-76
2023/12/05 19:33:02;;;;;;;4.55;3.10;;;;;;;-2.34;100.00;91844.53;5064816;28;20092;-76
2023/12/05 19:35:28;;;;;;;4.68;2.97;;;;;;;-2.36;100.00;91838.84;5065958;28;20135;-77
2023/12/05 19:37:54;;;;;;;5.95;3.60;;;;;;;-2.38;100.00;91837.50;5045002;28;20049;-77
2023/12/05 19:40:21;;;;;;;4.15;2.95;;;;;;;-2.40;100.00;91842.06;5021005;28;20033;-77
2023/12/05 19:42:47;;;;;;;4.55;2.88;;;;;;;-2.42;100.00;91839.72;5067125;28;20058;-76
2023/12/05 19:45:13;;;;;;;3.95;2.72;;;;;;;-2.44;100.00;91838.38;5059620;28;20055;-77
2023/12/05 19:47:39;;;;;;;4.07;2.80;;;;;;;-2.43;100.00;91833.03;5035568;28;20460;-76
2023/12/05 19:50:06;;;;;;;3.80;2.70;;;;;;;-2.43;100.00;91822.00;5063986;28;20041;-76
2023/12/05 19:52:32;;;;;;;4.30;2.80;;;;;;;-2.45;100.00;91819.66;5043306;28;20074;-76
2023/12/05 19:54:57;;;;;;;4.05;2.80;;;;;;;-2.47;100.00;91816.53;5040203;28;20060;-77
2023/12/05 19:57:23;;;;;;;3.42;2.22;;;;;;;-2.49;100.00;91818.53;5064952;28;20044;-76
2023/12/05 19:59:48;;;;;;;3.90;2.60;;;;;;;-2.53;100.00;91817.44;5060511;28;20032;-76
2023/12/05 20:02:14;;;;;;;3.50;2.38;;;;;;;-2.55;100.00;91824.56;5067380;28;20297;-76
2023/12/05 20:04:40;;;;;;;3.88;2.60;;;;;;;-2.55;100.00;91824.56;5067683;28;20024;-77
2023/12/05 20:07:06;;;;;;;3.83;2.45;;;;;;;-2.54;100.00;91826.13;5067143;28;20090;-77
2023/12/05 20:09:32;;;;;;;4.53;2.85;;;;;;;-2.54;100.00;91828.69;5069465;28;20039;-76
2023/12/05 20:11:58;;;;;;;4.32;2.80;;;;;;;-2.56;100.00;91823.00;5071115;28;20036;-77
2023/12/05 20:14:24;;;;;;;5.20;3.10;;;;;;;-2.53;100.00;91820.00;5068053;28;20048;-77
2023/12/05 20:16:49;;;;;;;4.70;3.42;;;;;;;-2.53;100.00;91822.56;5064310;28;20048;-77
2023/12/05 20:19:15;;;;;;;4.70;3.03;;;;;;;-2.52;100.00;91824.13;5068486;28;20036;-76
2023/12/05 20:21:41;;;;;;;5.78;3.95;;;;;;;-2.58;100.00;91812.97;5065957;28;20058;-77
2023/12/05 20:24:11;;;;;;;6.40;4.25;;;;;;;-2.52;100.00;91819.00;5078257;28;20296;-76
2023/12/05 20:26:40;;;;;;;6.45;4.43;;;;;;;-2.56;100.00;91812.75;5082043;28;20028;-76
2023/12/05 20:29:05;;;;;;;5.88;4.43;;;;;;;-2.58;100.00;91822.44;5078906;28;20032;-77
2023/12/05 20:31:31;;;;;;;6.47;3.97;;;;;;;-2.56;100.00;91812.75;5083157;28;20590;-76
2023/12/05 20:33:57;;;;;;;5.25;4.07;;;;;;;-2.59;100.00;91821.66;5081546;28;20032;-76
2023/12/05 20:36:23;;;;;;;4.60;3.03;;;;;;;-2.59;100.00;91819.13;5087848;28;20032;-76
2023/12/05 20:38:49;;;;;;;4.40;3.10;;;;;;;-2.62;100.00;91829.00;5073589;28;20028;-76
2023/12/05 20:41:15;;;;;;;3.90;2.70;;;;;;;-2.62;100.00;91822.09;5074593;28;21310;-76
2023/12/05 20:43:41;;;;;;;3.85;2.55;;;;;;;-2.58;100.00;91820.66;5071017;28;20040;-76
2023/12/05 20:46:08;;;;;;;4.75;2.47;;;;;;;-2.52;100.00;91829.25;5077457;28;20039;-76
2023/12/05 20:48:33;;;;;;;4.22;2.50;;;;;;;-2.47;100.00;91823.47;5079245;28;20038;-76
2023/12/05 20:50:59;;;;;;;4.18;2.60;;;;;;;-2.46;100.00;91825.78;5074831;28;20374;-76
2023/12/05 20:53:25;;;;;;;4.25;2.65;;;;;;;-2.43;100.00;91833.03;5073487;28;20040;-76
2023/12/05 20:55:54;;;;;;;3.03;1.80;;;;;;;-2.40;100.00;91827.47;5077998;28;20496;-75
2023/12/05 20:58:21;;;;;;;3.40;2.22;;;;;;;-2.34;100.00;91824.00;5074532;28;20570;-76
2023/12/05 21:00:46;;;;;;;3.95;2.45;;;;;;;-2.28;100.00;91834.38;5075798;28;20024;-76
2023/12/05 21:03:12;;;;;;;3.67;2.20;;;;;;;-2.25;100.00;91818.53;5074059;28;20678;-78
2023/12/05 21:05:38;;;;;;;3.65;2.25;;;;;;;-2.24;100.00;91818.31;5080055;28;20044;-77
2023/12/05 21:08:12;;;;;;;3.47;2.30;;;;;;;-2.19;100.00;91822.75;5078380;28;20032;-78
2023/12/05 21:10:38;;;;;;;4.05;2.65;;;;;;;-2.14;100.00;91833.13;5086472;28;20032;-76
2023/12/05 21:13:04;;;;;;;3.67;2.35;;;;;;;-2.11;100.00;91830.91;5081240;28;20068;-78
2023/12/05 21:15:30;;;;;;;3.85;2.55;;;;;;;-2.14;100.00;91820.31;5076425;28;20035;-78
2023/12/05 21:17:56;;;;;;;3.65;2.30;;;;;;;-2.15;100.00;91829.00;5069746;28;20107;-78
2023/12/05 21:20:22;;;;;;;4.35;2.45;;;;;;;-2.15;100.00;91831.56;5078660;28;20208;-78
2023/12/05 21:22:47;;;;;;;4.20;3.00;;;;;;;-2.22;100.00;91816.31;5043932;28;20517;-77
2023/12/05 21:25:13;;;;;;;4.03;2.50;;;;;;;-2.21;100.00;91814.50;5067903;28;20500;-77
2023/12/05 21:27:39;;;;;;;3.15;2.00;;;;;;;-2.17;100.00;91815.63;5030368;28;20098;-78
2023/12/05 21:30:05;;;;;;;3.40;2.17;;;;;;;-1.96;100.00;91822.75;5060247;28;20090;-78
2023/12/05 21:32:32;;;;;;;4.25;2.60;;;;;;;-2.06;100.00;91796.09;5061686;28;20037;-78
2023/12/05 21:34:57;;;;;;;4.22;2.65;;;;;;;-1.80;100.00;91820.47;5058004;28;20028;-78
2023/12/05 21:37:23;;;;;;;3.80;2.60;;;;;;;-1.76;100.00;91826.72;5061469;28;20110;-77
2023/12/05 21:39:48;;;;;;;4.25;3.00;;;;;;;-1.79;100.00;91822.03;5065705;28;20040;-77
2023/12/05 21:42:14;;;;;;;4.38;2.90;;;;;;;-1.94;100.00;91817.38;5058605;28;20055;-78
2023/12/05 21:44:40;;;;;;;5.30;4.07;;;;;;;-2.03;100.00;91824.63;5052955;28;20051;-78
2023/12/05 21:47:06;;;;;;;4.55;3.25;;;;;;;-2.10;100.00;91818.84;5063462;28;20044;-77
2023/12/05 21:49:35;;;;;;;4.10;2.97;;;;;;;-2.20;100.00;91805.84;5048418;28;20040;-78
2023/12/05 21:52:02;;;;;;;3.63;2.60;;;;;;;-2.04;100.00;91814.63;5065775;28;20041;-77
2023/12/05 21:54:27;;;;;;;3.60;2.50;;;;;;;-2.08;100.00;91803.25;5042365;28;20133;-78
2023/12/05 21:56:53;;;;;;;3.88;2.72;;;;;;;-2.04;100.00;91817.97;5065159;28;20051;-78
2023/12/05 21:59:20;;;;;;;4.70;2.58;;;;;;;-2.08;100.00;91819.41;5066590;28;20051;-78
2023/12/05 22:01:45;;;;;;;3.30;2.28;;;;;;;-2.13;100.00;91819.31;5060973;28;20115;-78
2023/12/05 22:04:11;;;;;;;3.60;2.33;;;;;;;-2.19;100.00;91812.50;5059865;28;20048;-78
2023/12/05 22:06:36;;;;;;;3.47;2.15;;;;;;;-2.20;100.00;91813.53;5060114;28;20459;-78
2023/12/05 22:09:03;;;;;;;4.32;2.80;;;;;;;-2.24;100.00;91810.63;5061364;28;20043;-77
2023/12/05 22:11:29;;;;;;;3.10;2.10;;;;;;;-2.31;100.00;91808.16;5064146;28;20029;-77
2023/12/05 22:13:56;;;;;;;3.30;2.30;;;;;;;-2.30;100.00;91816.63;5065468;28;20170;-77
2023/12/05 22:16:21;;;;;;;2.88;2.00;;;;;;;-2.14;100.00;91833.13;5068609;28;20040;-77
